Time;durP1;ratioP1;P1;durP2;ratioP2;P2;SDS_P1;SDS_P2;PMS_P1;PMS_P2;Temp;Humidity;BMP_temperature;BMP_pressure;BME280_temperature;BME280_humidity;BME280_pressure;Samples;Min_cycle;Max_cycle;Signal;HPM_P1;HPM_P2
2020/12/28 00:01:38;;;;;;;10.25;6.50;;;;;;;1.47;68.77;96631.25;120248;1144;65095;-89
2020/12/28 00:04:05;;;;;;;8.80;5.27;;;;;;;1.47;68.73;96624.20;120008;1144;65188;-89
2020/12/28 00:06:31;;;;;;;9.10;5.97;;;;;;;1.47;68.82;96607.58;120524;1143;65150;-87
2020/12/28 00:08:58;;;;;;;10.68;6.85;;;;;;;1.47;68.54;96607.58;120219;1144;65125;-91
2020/12/28 00:11:24;;;;;;;9.40;6.50;;;;;;;1.50;68.78;96602.08;120548;1142;64974;-90
2020/12/28 00:13:52;;;;;;;9.63;6.20;;;;;;;1.51;68.82;96587.97;120456;1144;65089;-90
2020/12/28 00:16:19;;;;;;;10.67;7.03;;;;;;;1.52;68.81;96587.84;120391;1144;65284;-90
2020/12/28 00:18:46;;;;;;;11.07;7.80;;;;;;;1.55;69.22;96585.00;120419;1144;65156;-91
2020/12/28 00:21:12;;;;;;;9.50;6.20;;;;;;;1.57;68.96;96574.36;120416;1144;65071;-91
2020/12/28 00:23:38;;;;;;;9.37;6.50;;;;;;;1.58;69.07;96561.08;120122;1144;65207;-91
2020/12/28 00:26:05;;;;;;;8.23;5.43;;;;;;;1.60;68.87;96556.56;120127;1143;65050;-88
2020/12/28 00:28:32;;;;;;;6.83;4.97;;;;;;;1.63;68.90;96551.05;120319;1143;65124;-91
2020/12/28 00:30:58;;;;;;;8.47;5.77;;;;;;;1.66;68.99;96539.48;120619;1143;65057;-92
2020/12/28 00:33:24;;;;;;;9.27;6.23;;;;;;;1.70;69.33;96543.53;120728;1144;65079;-88
2020/12/28 00:35:51;;;;;;;9.83;7.20;;;;;;;1.70;69.48;96540.91;120875;1143;65092;-92
2020/12/28 00:38:17;;;;;;;10.27;6.57;;;;;;;1.71;69.59;96532.05;120633;1143;65111;-87
2020/12/28 00:40:43;;;;;;;8.15;5.85;;;;;;;1.73;69.12;96524.06;119887;1144;65456;-90
2020/12/28 00:43:10;;;;;;;9.25;5.60;;;;;;;1.74;69.14;96526.56;120279;1144;65105;-89
2020/12/28 00:45:36;;;;;;;7.93;4.93;;;;;;;1.76;69.11;96505.39;120425;1144;65181;-91
2020/12/28 00:48:03;;;;;;;7.13;4.73;;;;;;;1.79;69.34;96502.55;120342;1144;65046;-89
2020/12/28 00:50:30;;;;;;;6.97;4.73;;;;;;;1.80;69.48;96499.78;120037;1144;65037;-89
2020/12/28 00:52:57;;;;;;;7.17;4.73;;;;;;;1.80;68.97;96504.21;120116;1144;65212;-87
2020/12/28 00:55:26;;;;;;;11.43;5.43;;;;;;;1.80;69.12;96493.69;120018;1143;65066;-89
2020/12/28 00:57:52;;;;;;;6.93;4.80;;;;;;;1.77;69.21;96494.74;120033;1144;65086;-88
2020/12/28 01:00:18;;;;;;;6.47;4.33;;;;;;;1.74;69.49;96489.73;120071;1144;65003;-90
2020/12/28 01:02:53;;;;;;;5.58;4.08;;;;;;;1.73;69.05;96487.23;120027;1143;65166;-88
2020/12/28 01:05:28;;;;;;;6.87;4.63;;;;;;;1.66;69.10;96471.08;119899;1143;65047;-87
2020/12/28 01:07:55;;;;;;;7.43;4.00;;;;;;;1.62;69.37;96482.78;120012;1144;65102;-86
2020/12/28 01:10:27;;;;;;;7.30;4.30;;;;;;;1.57;69.65;96467.35;120177;1144;65145;-91
2020/12/28 01:12:57;;;;;;;5.97;3.60;;;;;;;1.54;69.58;96462.34;120016;1144;65154;-91
2020/12/28 01:15:25;;;;;;;7.93;4.20;;;;;;;1.49;69.73;96464.48;120366;1143;65069;-90
2020/12/28 01:17:53;;;;;;;7.07;4.00;;;;;;;1.46;69.96;96458.61;120247;1144;65149;-90
2020/12/28 01:20:30;;;;;;;6.45;4.30;;;;;;;1.46;70.18;96461.23;120369;1143;65165;-86
2020/12/28 01:22:57;;;;;;;7.80;4.55;;;;;;;1.45;69.72;96456.94;120574;1144;65089;-92
2020/12/28 01:25:25;;;;;;;7.20;4.30;;;;;;;1.44;69.65;96455.27;120303;1144;65162;-87
2020/12/28 01:27:56;;;;;;;7.50;4.30;;;;;;;1.43;69.74;96449.17;120432;1143;65073;-89
2020/12/28 01:30:24;;;;;;;9.40;4.00;;;;;;;1.44;69.48;96436.86;120414;1144;65150;-90
2020/12/28 01:32:50;;;;;;;5.67;3.47;;;;;;;1.43;69.71;96438.66;120524;1144;65085;-91
2020/12/28 01:35:36;;;;;;;7.83;4.53;;;;;;;1.43;69.81;96440.45;120679;1144;65076;-90
2020/12/28 01:38:04;;;;;;;8.30;4.85;;;;;;;1.41;69.63;96450.25;120563;1144;65068;-91
2020/12/28 01:40:32;;;;;;;8.00;4.50;;;;;;;1.42;70.22;96450.13;120379;1144;65090;-90
2020/12/28 01:42:59;;;;;;;6.33;4.40;;;;;;;1.44;69.93;96450.84;120486;1143;65052;-89
2020/12/28 01:45:26;;;;;;;7.47;4.50;;;;;;;1.50;70.55;96439.85;120285;1143;65065;-92
2020/12/28 01:47:55;;;;;;;7.37;4.70;;;;;;;1.58;69.97;96437.45;120182;1144;65455;-90
2020/12/28 01:50:21;;;;;;;7.45;5.15;;;;;;;1.63;69.83;96423.95;120250;1144;65002;-93
2020/12/28 01:52:48;;;;;;;10.05;6.20;;;;;;;1.65;70.10;96419.40;119977;1144;65159;-89
2020/12/28 01:55:15;;;;;;;7.50;5.40;;;;;;;1.68;70.35;96403.39;120263;1144;65072;-91
2020/12/28 01:57:57;;;;;;;7.70;5.10;;;;;;;1.73;70.27;96398.61;120359;1143;65218;-93
2020/12/28 02:00:25;;;;;;;8.37;5.40;;;;;;;1.77;70.24;96384.23;120327;1143;65100;-90
2020/12/28 02:02:57;;;;;;;6.83;4.83;;;;;;;1.80;70.37;96389.27;120397;1143;65225;-90
2020/12/28 02:05:40;;;;;;;9.37;6.23;;;;;;;1.84;69.89;96374.05;120253;1143;65038;-89
2020/12/28 02:08:06;;;;;;;11.13;6.33;;;;;;;1.86;70.33;96383.52;120218;1144;65015;-90
2020/12/28 02:10:33;;;;;;;11.30;6.77;;;;;;;1.86;70.38;96378.25;120144;1144;65153;-92
2020/12/28 02:13:00;;;;;;;9.47;6.20;;;;;;;1.88;70.53;96359.70;120115;1144;65136;-89
2020/12/28 02:15:27;;;;;;;7.67;5.53;;;;;;;1.89;70.08;96349.05;120361;1144;65092;-90
2020/12/28 02:18:13;;;;;;;8.00;5.28;;;;;;;1.89;70.18;96349.05;120351;1143;65082;-88
2020/12/28 02:20:55;;;;;;;9.63;6.40;;;;;;;1.88;70.48;96360.54;120770;1143;64996;-90
2020/12/28 02:23:21;;;;;;;10.00;5.90;;;;;;;1.88;70.39;96359.70;120383;1144;65053;-90
2020/12/28 02:25:48;;;;;;;10.37;6.83;;;;;;;1.89;70.55;96346.41;120215;1144;65092;-91
2020/12/28 02:28:14;;;;;;;11.55;6.53;;;;;;;1.90;70.50;96334.92;120219;1144;65059;-88
2020/12/28 02:30:40;;;;;;;9.78;6.53;;;;;;;1.92;70.31;96333.99;120150;1144;65150;-91
2020/12/28 02:33:30;;;;;;;7.97;5.43;;;;;;;1.94;70.48;96325.00;120019;1143;65468;-90
2020/12/28 02:36:08;;;;;;;10.35;6.35;;;;;;;1.94;70.47;96308.38;119968;1144;65180;-90
2020/12/28 02:38:36;;;;;;;9.45;6.30;;;;;;;1.95;71.00;96312.67;120078;1144;65076;-86
2020/12/28 02:41:04;;;;;;;11.73;7.47;;;;;;;2.00;70.65;96321.03;119945;1144;65014;-91
2020/12/28 02:43:51;;;;;;;12.60;6.43;;;;;;;2.04;70.60;96317.20;119993;1144;65105;-88
2020/12/28 02:46:36;;;;;;;10.97;6.90;;;;;;;2.05;70.83;96305.71;120092;1144;65064;-90
2020/12/28 02:49:21;;;;;;;11.63;6.53;;;;;;;2.08;70.63;96306.28;120416;1142;65021;-90
2020/12/28 02:52:06;;;;;;;7.70;5.28;;;;;;;2.14;70.76;96297.05;120337;1144;65124;-89
2020/12/28 02:54:52;;;;;;;11.40;6.97;;;;;;;2.22;70.84;96281.45;120154;1144;65079;-89
2020/12/28 02:57:53;;;;;;;8.87;6.47;;;;;;;2.29;70.53;96280.00;119770;1146;65056;-90
2020/12/28 03:00:38;;;;;;;9.53;5.70;;;;;;;2.35;70.66;96282.09;120293;1144;65086;-92
2020/12/28 03:03:24;;;;;;;9.03;5.57;;;;;;;2.37;70.45;96288.09;120875;1144;65015;-90
2020/12/28 03:06:10;;;;;;;7.50;5.00;;;;;;;2.41;70.57;96294.75;120334;1144;65217;-92
2020/12/28 03:08:56;;;;;;;7.33;4.47;;;;;;;2.46;70.72;96304.92;120355;1144;65162;-92
2020/12/28 03:11:41;;;;;;;;;;;;;;;2.54;70.72;96306.91;120474;1144;65019;-90
2020/12/28 03:14:27;;;;;;;8.93;4.60;;;;;;;2.60;70.61;96287.95;120169;1144;65131;-87
2020/12/28 03:17:12;;;;;;;6.87;4.80;;;;;;;2.64;70.30;96297.28;120336;1144;65062;-91
2020/12/28 03:19:57;;;;;;;9.20;6.10;;;;;;;2.65;70.14;96298.95;120616;1144;65080;-91
2020/12/28 03:22:42;;;;;;;8.35;4.87;;;;;;;2.65;70.50;96296.31;120557;1143;65066;-92
2020/12/28 03:25:27;;;;;;;6.67;4.25;;;;;;;2.65;70.38;96298.95;120513;1143;65118;-91
2020/12/28 03:28:12;;;;;;;7.70;5.03;;;;;;;2.66;70.59;96297.98;120413;1143;66644;-87
2020/12/28 03:31:14;;;;;;;9.77;5.87;;;;;;;2.68;70.48;96286.36;120016;1148;65411;-91
2020/12/28 03:33:59;;;;;;;8.30;5.47;;;;;;;2.67;70.46;96278.56;120250;1144;65091;-91
2020/12/28 03:36:44;;;;;;;9.95;6.47;;;;;;;2.65;70.60;96275.23;120822;1143;64973;-89
2020/12/28 03:39:29;;;;;;;7.87;5.25;;;;;;;2.63;70.93;96274.53;120459;1144;65028;-85
2020/12/28 03:42:14;;;;;;;7.47;4.63;;;;;;;2.64;70.59;96273.56;120135;1144;65107;-88
2020/12/28 03:44:59;;;;;;;8.80;5.35;;;;;;;2.64;71.08;96276.20;120711;1144;65021;-91
2020/12/28 03:47:46;;;;;;;9.73;5.77;;;;;;;2.65;70.45;96280.50;119998;1144;65065;-89
2020/12/28 03:50:31;;;;;;;9.67;5.53;;;;;;;2.64;70.73;96268.30;120103;1144;65022;-88
2020/12/28 03:53:16;;;;;;;8.78;5.12;;;;;;;2.63;70.89;96282.44;120381;1144;65069;-92
2020/12/28 03:56:01;;;;;;;7.33;5.72;;;;;;;2.60;70.72;96280.05;120342;1144;65178;-90
2020/12/28 03:58:47;;;;;;;7.25;5.15;;;;;;;2.61;71.06;96281.74;120184;1144;65481;-91
2020/12/28 04:01:32;;;;;;;;;;;;;;;2.62;70.72;96281.61;120509;1144;65193;-90
2020/12/28 04:04:18;;;;;;;9.37;5.93;;;;;;;2.63;70.78;96290.34;120164;1144;65059;-90
2020/12/28 04:07:03;;;;;;;13.10;5.97;;;;;;;2.61;70.56;96287.02;120928;1143;65095;-92
2020/12/28 04:09:48;;;;;;;8.48;5.42;;;;;;;2.60;70.52;96288.78;120224;1144;64983;-90
2020/12/28 04:12:28;;;;;;;9.50;5.20;;;;;;;2.59;71.05;96278.38;120203;1144;65140;-91
2020/12/28 04:14:54;;;;;;;9.20;4.90;;;;;;;2.59;70.39;96276.58;120440;1144;65152;-90
2020/12/28 04:17:21;;;;;;;10.33;5.03;;;;;;;2.61;70.49;96279.11;120043;1143;65076;-93
2020/12/28 04:19:47;;;;;;;8.58;4.47;;;;;;;2.61;70.80;96269.41;120503;1144;65200;-91
2020/12/28 04:22:13;;;;;;;11.45;5.50;;;;;;;2.63;70.66;96272.73;120003;1143;65232;-91
2020/12/28 04:24:40;;;;;;;10.93;5.30;;;;;;;2.64;70.70;96273.56;120143;1144;65073;-91
2020/12/28 04:27:06;;;;;;;7.97;4.80;;;;;;;2.63;70.66;96266.63;120373;1143;65094;-90
2020/12/28 04:29:32;;;;;;;10.33;6.23;;;;;;;2.60;70.85;96267.70;119956;1143;65089;-91
2020/12/28 04:31:59;;;;;;;10.13;5.95;;;;;;;2.59;70.83;96273.11;120368;1143;65059;-92
2020/12/28 04:34:25;;;;;;;14.70;6.00;;;;;;;2.56;70.96;96276.02;120107;1144;65229;-90
2020/12/28 04:36:52;;;;;;;10.70;5.43;;;;;;;2.53;70.98;96271.00;120195;1144;65111;-92
2020/12/28 04:39:18;;;;;;;11.10;5.17;;;;;;;2.53;71.05;96273.63;120046;1144;65980;-89
2020/12/28 04:41:44;;;;;;;9.20;5.00;;;;;;;2.53;70.94;96276.27;119930;1144;65095;-89
2020/12/28 04:44:12;;;;;;;10.08;5.58;;;;;;;2.54;71.03;96270.02;119830;1144;65087;-90
2020/12/28 04:46:40;;;;;;;12.90;6.33;;;;;;;2.56;70.98;96262.85;120033;1144;65168;-90
2020/12/28 04:49:07;;;;;;;10.35;5.40;;;;;;;2.55;71.15;96256.75;120157;1143;65114;-91
2020/12/28 04:51:34;;;;;;;6.97;4.57;;;;;;;2.55;70.79;96254.11;120261;1143;65138;-91
2020/12/28 04:54:00;;;;;;;9.37;5.50;;;;;;;2.55;70.79;96250.65;120111;1144;65156;-95
2020/12/28 04:56:26;;;;;;;9.15;5.30;;;;;;;2.54;71.14;96248.95;120134;1144;65105;-90
2020/12/28 04:58:53;;;;;;;6.00;4.35;;;;;;;2.52;70.81;96238.55;119997;1144;65130;-91
2020/12/28 05:01:19;;;;;;;5.20;3.87;;;;;;;2.52;71.07;96233.28;120089;1144;65053;-90
2020/12/28 05:03:46;;;;;;;7.10;3.60;;;;;;;2.54;71.12;96228.70;120180;1144;65130;-92
2020/12/28 05:06:15;;;;;;;6.93;4.50;;;;;;;2.57;70.84;96223.20;120171;1144;65039;-91
2020/12/28 05:08:43;;;;;;;5.13;4.07;;;;;;;2.60;70.78;96229.98;120719;1143;65088;-91
2020/12/28 05:11:13;;;;;;;6.73;4.27;;;;;;;2.62;71.26;96231.55;120476;1143;65540;-91
2020/12/28 05:13:40;;;;;;;6.47;4.33;;;;;;;2.63;71.24;96235.02;120392;1143;65076;-91
2020/12/28 05:16:06;;;;;;;6.43;4.70;;;;;;;2.63;70.89;96242.92;120509;1144;65161;-89
2020/12/28 05:18:34;;;;;;;6.20;4.43;;;;;;;2.63;71.30;96250.83;120162;1144;65066;-91
2020/12/28 05:21:00;;;;;;;8.07;4.73;;;;;;;2.61;71.04;96248.33;120254;1144;65047;-90
2020/12/28 05:23:27;;;;;;;9.73;5.33;;;;;;;2.61;70.77;96245.69;120068;1143;65194;-92
2020/12/28 05:25:53;;;;;;;9.73;4.80;;;;;;;2.60;70.89;96249.27;120223;1144;65031;-92
2020/12/28 05:28:27;;;;;;;11.53;5.40;;;;;;;2.62;70.86;96239.45;120112;1143;65156;-90
2020/12/28 05:30:59;;;;;;;10.27;5.87;;;;;;;2.64;71.58;96236.69;120330;1144;65152;-91
2020/12/28 05:33:33;;;;;;;12.67;7.07;;;;;;;2.67;71.22;96236.41;120876;1144;65159;-92
2020/12/28 05:36:02;;;;;;;10.38;5.95;;;;;;;2.73;71.49;96240.32;120474;1144;65165;-92
2020/12/28 05:38:30;;;;;;;9.70;5.40;;;;;;;2.77;71.09;96233.83;121088;1144;63891;-93
2020/12/28 05:41:02;;;;;;;12.80;6.10;;;;;;;2.78;71.08;96243.41;121162;1144;65193;-92
2020/12/28 05:43:29;;;;;;;9.40;5.17;;;;;;;2.79;71.46;96245.91;120815;1144;65095;-92
2020/12/28 05:45:55;;;;;;;7.65;4.75;;;;;;;2.79;71.67;96245.06;121138;1144;63163;-92
2020/12/28 05:48:23;;;;;;;10.23;5.57;;;;;;;2.80;70.89;96242.33;120961;1144;65150;-91
2020/12/28 05:50:58;;;;;;;6.87;4.63;;;;;;;2.82;71.11;96243.02;120466;1143;65137;-90
2020/12/28 05:53:25;;;;;;;7.30;4.75;;;;;;;2.84;70.87;96233.17;120562;1144;65158;-92
2020/12/28 05:55:53;;;;;;;8.20;5.45;;;;;;;2.85;70.79;96240.11;120666;1144;65120;-91
2020/12/28 05:58:20;;;;;;;17.05;8.80;;;;;;;2.85;71.06;96231.37;120436;1144;65162;-91
2020/12/28 06:00:49;;;;;;;21.97;11.10;;;;;;;2.83;71.25;96218.33;120287;1144;65641;-92
2020/12/28 06:03:24;;;;;;;28.27;13.33;;;;;;;2.78;71.42;96203.88;120668;1144;65015;-91
2020/12/28 06:05:51;;;;;;;;;;;;;;;2.71;71.36;96198.30;120771;1144;64903;-88
2020/12/28 06:08:18;;;;;;;11.80;6.63;;;;;;;2.65;70.78;96194.39;120790;1144;65011;-90
2020/12/28 06:10:45;;;;;;;8.83;5.80;;;;;;;2.60;70.91;96198.37;120059;1144;65052;-92
2020/12/28 06:13:24;;;;;;;8.70;5.03;;;;;;;2.58;71.56;96202.95;120177;1144;65351;-90
2020/12/28 06:16:04;;;;;;;8.87;5.83;;;;;;;2.58;71.09;96218.76;119864;1144;65137;-90
2020/12/28 06:18:32;;;;;;;9.50;5.80;;;;;;;2.57;71.18;96236.37;119919;1143;65040;-90
2020/12/28 06:21:11;;;;;;;10.20;5.80;;;;;;;2.58;71.68;96253.01;120010;1144;65146;-89
2020/12/28 06:23:38;;;;;;;10.60;6.10;;;;;;;2.58;71.28;96258.28;119774;1142;65095;-89
2020/12/28 06:26:05;;;;;;;10.00;5.30;;;;;;;2.58;71.31;96258.28;119900;1144;65079;-91
2020/12/28 06:28:32;;;;;;;9.25;5.40;;;;;;;2.60;71.56;96253.70;120125;1143;65039;-92
2020/12/28 06:31:07;;;;;;;7.53;4.73;;;;;;;2.64;71.36;96247.22;120092;1144;65069;-89
2020/12/28 06:33:34;;;;;;;6.90;4.47;;;;;;;2.65;71.17;96262.89;119888;1144;65202;-89
2020/12/28 06:36:00;;;;;;;9.90;5.05;;;;;;;2.68;71.74;96257.38;119896;1143;65167;-90
2020/12/28 06:38:27;;;;;;;11.40;6.27;;;;;;;2.70;71.32;96254.61;119915;1143;65462;-89
2020/12/28 06:40:53;;;;;;;9.00;5.60;;;;;;;2.69;71.67;96259.05;119927;1144;65076;-89
2020/12/28 06:43:22;;;;;;;7.73;5.33;;;;;;;2.71;71.18;96243.09;119946;1144;65105;-92
2020/12/28 06:45:50;;;;;;;6.10;4.73;;;;;;;2.70;71.29;96233.52;120003;1144;65182;-90
2020/12/28 06:48:21;;;;;;;7.30;4.85;;;;;;;2.69;71.84;96231.86;120017;1144;65069;-90
2020/12/28 06:50:50;;;;;;;7.43;5.30;;;;;;;2.71;71.11;96232.55;120501;1144;65076;-90
2020/12/28 06:53:23;;;;;;;7.50;4.80;;;;;;;2.75;71.58;96233.14;120429;1143;65067;-91
2020/12/28 06:55:50;;;;;;;9.00;4.80;;;;;;;2.78;71.37;96230.23;120968;1144;65418;-91
2020/12/28 06:58:17;;;;;;;13.17;8.47;;;;;;;2.81;71.54;96219.44;120768;1144;65065;-91
2020/12/28 07:00:44;;;;;;;15.77;8.57;;;;;;;2.81;71.47;96230.81;120696;1143;64999;-92
2020/12/28 07:03:15;;;;;;;15.43;9.20;;;;;;;2.83;71.29;96226.23;120726;1143;65095;-90
2020/12/28 07:05:42;;;;;;;14.93;9.33;;;;;;;2.84;71.43;96238.44;120754;1143;65088;-90
2020/12/28 07:08:10;;;;;;;13.97;8.07;;;;;;;2.84;71.27;96227.90;120891;1143;65060;-92
2020/12/28 07:10:37;;;;;;;15.07;8.87;;;;;;;2.83;71.57;96210.42;120372;1144;65010;-91
2020/12/28 07:13:05;;;;;;;15.87;7.03;;;;;;;2.83;70.98;96209.59;120575;1144;65070;-89
2020/12/28 07:15:33;;;;;;;10.13;5.77;;;;;;;2.85;71.29;96218.19;120592;1143;65066;-91
2020/12/28 07:18:07;;;;;;;10.13;5.97;;;;;;;2.88;71.28;96229.31;120178;1144;65199;-90
2020/12/28 07:20:34;;;;;;;14.63;6.50;;;;;;;2.94;70.99;96239.33;120052;1144;65092;-88
2020/12/28 07:23:00;;;;;;;14.47;7.90;;;;;;;2.94;70.89;96247.24;119978;1144;64999;-92
2020/12/28 07:25:27;;;;;;;17.67;8.77;;;;;;;2.94;71.53;96243.77;119958;1143;65041;-93
2020/12/28 07:27:54;;;;;;;18.55;9.10;;;;;;;2.95;70.91;96238.36;119900;1144;64993;-89
2020/12/28 07:30:20;;;;;;;17.93;8.93;;;;;;;2.98;71.29;96242.52;119910;1144;65063;-90
2020/12/28 07:32:47;;;;;;;17.03;9.17;;;;;;;2.94;71.12;96227.95;120063;1143;65156;-92
2020/12/28 07:35:13;;;;;;;18.77;9.20;;;;;;;2.88;71.06;96224.05;120065;1144;65076;-92
2020/12/28 07:37:42;;;;;;;19.30;8.83;;;;;;;2.86;71.10;96218.08;120420;1144;65114;-91
2020/12/28 07:40:09;;;;;;;45.57;14.53;;;;;;;2.82;71.08;96197.39;120374;1143;65204;-91
2020/12/28 07:42:36;;;;;;;169.80;47.85;;;;;;;2.78;70.93;96190.70;120476;1144;65099;-92
2020/12/28 07:45:07;;;;;;;44.10;17.07;;;;;;;2.76;71.31;96188.20;120461;1143;65127;-87
2020/12/28 07:47:46;;;;;;;21.37;10.27;;;;;;;2.75;71.42;96190.98;120610;1143;65021;-90
2020/12/28 07:50:15;;;;;;;11.23;7.40;;;;;;;2.73;71.11;96195.52;120420;1144;64992;-91
2020/12/28 07:52:44;;;;;;;16.90;8.83;;;;;;;2.73;71.15;96204.26;120134;1143;65236;-89
2020/12/28 07:55:21;;;;;;;14.60;8.40;;;;;;;2.72;71.17;96207.87;120214;1143;65089;-91
2020/12/28 07:57:53;;;;;;;11.53;6.70;;;;;;;2.71;71.09;96212.30;120023;1144;65143;-90
2020/12/28 08:00:24;;;;;;;11.93;6.80;;;;;;;2.74;71.63;96211.23;120001;1144;65066;-90
2020/12/28 08:03:16;;;;;;;13.73;7.50;;;;;;;2.76;71.38;96219.83;120002;1144;65071;-90
2020/12/28 08:05:44;;;;;;;11.57;7.70;;;;;;;2.81;71.35;96217.64;120095;1143;65147;-90
2020/12/28 08:08:25;;;;;;;17.10;8.53;;;;;;;2.88;71.46;96231.12;120329;1143;65093;-91
2020/12/28 08:10:56;;;;;;;16.95;8.90;;;;;;;2.93;71.31;96227.13;120036;1143;65069;-91
2020/12/28 08:13:28;;;;;;;15.27;6.83;;;;;;;2.97;70.81;96217.12;119901;1144;65203;-90
2020/12/28 08:16:17;;;;;;;13.45;7.45;;;;;;;2.98;71.35;96177.45;120032;1144;65142;-86
2020/12/28 08:18:53;;;;;;;12.17;7.00;;;;;;;2.95;70.81;96172.45;120024;1144;65143;-91
2020/12/28 08:21:38;;;;;;;12.07;6.93;;;;;;;2.93;71.30;96200.77;120051;1144;65072;-91
2020/12/28 08:24:04;;;;;;;10.65;6.40;;;;;;;2.91;71.37;96213.22;120163;1144;65244;-91
2020/12/28 08:26:31;;;;;;;10.57;7.30;;;;;;;2.94;70.85;96206.87;120744;1144;65589;-90
2020/12/28 08:29:03;;;;;;;14.13;6.60;;;;;;;2.95;70.91;96208.53;120383;1144;65178;-90
2020/12/28 08:31:34;;;;;;;10.93;6.53;;;;;;;2.98;71.22;96224.06;120579;1143;65073;-90
2020/12/28 08:34:08;;;;;;;11.90;7.27;;;;;;;3.00;71.22;96231.87;120332;1143;65631;-91
2020/12/28 08:36:40;;;;;;;14.87;7.83;;;;;;;2.98;70.82;96247.80;120598;1144;65093;-91
2020/12/28 08:39:16;;;;;;;18.60;8.70;;;;;;;2.97;70.99;96243.49;120468;1144;65113;-92
2020/12/28 08:42:09;;;;;;;17.50;9.05;;;;;;;2.95;71.13;96230.45;120539;1144;65175;-89
2020/12/28 08:44:37;;;;;;;16.33;8.00;;;;;;;2.93;70.45;96228.93;120171;1144;65062;-90
2020/12/28 08:47:08;;;;;;;15.70;7.90;;;;;;;2.92;70.70;96204.34;119963;1143;65136;-88
2020/12/28 08:49:35;;;;;;;16.30;7.73;;;;;;;2.92;70.66;96191.16;120182;1144;65053;-88
2020/12/28 08:52:11;;;;;;;16.27;7.93;;;;;;;2.95;70.87;96198.81;120195;1143;65085;-91
2020/12/28 08:54:38;;;;;;;16.30;9.37;;;;;;;2.96;70.96;96213.66;120726;1143;65088;-90
2020/12/28 08:57:05;;;;;;;15.83;8.60;;;;;;;2.95;70.63;96226.98;120257;1144;65126;-87
2020/12/28 08:59:32;;;;;;;15.50;8.50;;;;;;;2.96;71.37;96236.56;120296;1144;65014;-90
2020/12/28 09:01:59;;;;;;;16.03;9.27;;;;;;;2.96;70.52;96228.65;120380;1144;65073;-85
2020/12/28 09:04:25;;;;;;;17.80;8.10;;;;;;;2.96;70.91;96213.66;120439;1143;65168;-91
2020/12/28 09:06:52;;;;;;;14.37;8.13;;;;;;;2.98;70.67;96216.99;120709;1143;65102;-88
2020/12/28 09:09:19;;;;;;;19.03;8.00;;;;;;;3.01;70.67;96215.08;120186;1144;65252;-88
2020/12/28 09:11:46;;;;;;;13.17;7.83;;;;;;;3.04;70.81;96217.43;120428;1143;65082;-86
2020/12/28 09:14:12;;;;;;;14.03;8.47;;;;;;;3.06;70.92;96213.72;120436;1144;65162;-90
2020/12/28 09:16:39;;;;;;;21.97;9.83;;;;;;;3.06;70.41;96197.06;120407;1143;65074;-89
2020/12/28 09:19:06;;;;;;;12.90;8.75;;;;;;;3.04;70.11;96207.72;120432;1144;65156;-88
2020/12/28 09:21:33;;;;;;;14.70;8.20;;;;;;;3.02;70.85;96204.39;120192;1143;65239;-88
2020/12/28 09:23:59;;;;;;;18.53;10.07;;;;;;;3.02;70.41;96208.83;120307;1144;65021;-87
2020/12/28 09:26:28;;;;;;;22.20;8.80;;;;;;;3.03;70.66;96213.13;121073;1144;65731;-90
2020/12/28 09:28:55;;;;;;;23.23;9.20;;;;;;;3.05;70.91;96225.20;120670;1144;65166;-93
2020/12/28 09:31:22;;;;;;;23.20;10.57;;;;;;;3.07;70.86;96204.83;120470;1144;64982;-90
2020/12/28 09:33:49;;;;;;;24.03;10.77;;;;;;;3.08;70.52;96203.86;120346;1144;66241;-92
2020/12/28 09:36:19;;;;;;;22.75;10.00;;;;;;;3.06;70.50;96174.16;120287;1142;65188;-90
2020/12/28 09:38:47;;;;;;;26.67;11.67;;;;;;;3.04;70.62;96168.17;120252;1144;65060;-91
2020/12/28 09:41:13;;;;;;;31.30;13.23;;;;;;;3.02;70.82;96156.94;120307;1144;65083;-88
2020/12/28 09:43:41;;;;;;;25.60;11.80;;;;;;;3.01;70.59;96144.73;120443;1144;65005;-91
2020/12/28 09:46:09;;;;;;;21.87;9.97;;;;;;;3.03;70.78;96153.33;120588;1143;65095;-91
2020/12/28 09:48:36;;;;;;;20.10;10.07;;;;;;;3.07;70.88;96157.38;119994;1143;65059;-90
2020/12/28 09:51:05;;;;;;;26.00;10.90;;;;;;;3.09;71.00;96151.95;120523;1144;65117;-91
2020/12/28 09:53:31;;;;;;;24.77;11.23;;;;;;;3.09;70.46;96167.78;120470;1143;65111;-91
2020/12/28 09:55:58;;;;;;;26.07;12.67;;;;;;;3.11;70.94;96176.38;120249;1144;65207;-90
2020/12/28 09:58:25;;;;;;;24.93;10.90;;;;;;;3.11;70.66;96184.28;120365;1144;65076;-91
2020/12/28 10:00:51;;;;;;;21.13;9.40;;;;;;;3.12;70.81;96185.98;120517;1144;65088;-91
2020/12/28 10:03:17;;;;;;;24.13;10.87;;;;;;;3.11;70.62;96179.02;120226;1144;65088;-89
2020/12/28 10:05:44;;;;;;;21.13;9.53;;;;;;;3.13;70.56;96182.37;120290;1143;65140;-89
2020/12/28 10:08:11;;;;;;;22.23;10.47;;;;;;;3.16;70.79;96180.28;120409;1143;64999;-87
2020/12/28 10:10:37;;;;;;;18.80;9.57;;;;;;;3.22;70.47;96184.18;120501;1144;65143;-91
2020/12/28 10:13:04;;;;;;;15.87;8.53;;;;;;;3.26;71.05;96182.95;120460;1144;65047;-90
2020/12/28 10:15:37;;;;;;;17.10;9.70;;;;;;;3.31;70.80;96188.66;120244;1144;65073;-91
2020/12/28 10:18:09;;;;;;;20.93;11.17;;;;;;;3.33;70.66;96176.16;120663;1143;65174;-91
2020/12/28 10:20:36;;;;;;;25.10;11.10;;;;;;;3.33;70.41;96168.25;120892;1143;65159;-87
2020/12/28 10:23:03;;;;;;;24.63;10.70;;;;;;;3.34;70.25;96153.25;120610;1143;65162;-88
2020/12/28 10:25:30;;;;;;;19.50;9.77;;;;;;;3.35;70.65;96152.28;120432;1144;65066;-90
2020/12/28 10:27:56;;;;;;;20.25;9.60;;;;;;;3.35;70.25;96158.39;120933;1142;63821;-91
2020/12/28 10:30:23;;;;;;;19.13;9.83;;;;;;;3.38;70.31;96163.41;120663;1144;65098;-91
2020/12/28 10:32:50;;;;;;;23.43;10.47;;;;;;;3.43;70.62;96176.16;120420;1143;65005;-91
2020/12/28 10:35:17;;;;;;;28.25;13.70;;;;;;;3.46;70.50;96171.45;120935;1143;65195;-88
2020/12/28 10:37:43;;;;;;;30.90;12.80;;;;;;;3.50;70.31;96157.03;120710;1144;65066;-89
2020/12/28 10:40:10;;;;;;;20.83;9.60;;;;;;;3.54;70.33;96144.37;120488;1143;65111;-91
2020/12/28 10:42:36;;;;;;;23.77;11.50;;;;;;;3.58;70.62;96139.67;120167;1144;65139;-93
2020/12/28 10:45:04;;;;;;;21.55;11.22;;;;;;;3.62;70.08;96130.48;120440;1144;65204;-87
2020/12/28 10:47:30;;;;;;;22.37;11.67;;;;;;;3.68;70.17;96127.30;121101;1144;65086;-90
2020/12/28 10:49:57;;;;;;;23.13;11.77;;;;;;;3.71;69.90;96138.42;120934;1144;65089;-89
2020/12/28 10:52:23;;;;;;;22.30;11.77;;;;;;;3.76;70.53;96143.29;120977;1144;65140;-90
2020/12/28 10:54:50;;;;;;;25.27;10.30;;;;;;;3.77;70.80;96142.31;120893;1144;63175;-89
2020/12/28 10:57:17;;;;;;;19.63;10.63;;;;;;;3.82;69.83;96132.17;121772;1143;65486;-89
2020/12/28 10:59:44;;;;;;;18.00;9.17;;;;;;;3.84;70.08;96138.14;121027;1144;65123;-90
2020/12/28 11:02:10;;;;;;;23.00;8.85;;;;;;;3.83;69.71;96131.19;120540;1144;65102;-90
2020/12/28 11:04:37;;;;;;;18.43;9.70;;;;;;;3.84;70.53;96124.94;121682;1143;64023;-90
2020/12/28 11:07:04;;;;;;;26.07;13.10;;;;;;;3.85;69.94;96117.84;121465;1144;65050;-92
2020/12/28 11:09:30;;;;;;;28.67;14.90;;;;;;;3.82;70.32;96112.83;121681;1142;65123;-90
2020/12/28 11:11:57;;;;;;;27.73;14.23;;;;;;;3.80;70.27;96097.97;121689;1144;65098;-87
2020/12/28 11:14:23;;;;;;;23.43;12.90;;;;;;;3.80;70.51;96102.42;120942;1144;63651;-91
2020/12/28 11:16:50;;;;;;;31.10;15.50;;;;;;;3.77;70.47;96108.00;121103;1144;65114;-88
2020/12/28 11:19:16;;;;;;;32.40;17.45;;;;;;;3.75;69.96;96104.64;121540;1143;65018;-89
2020/12/28 11:21:44;;;;;;;29.30;15.03;;;;;;;3.67;69.88;96102.71;121187;1144;65002;-91
2020/12/28 11:24:10;;;;;;;31.07;14.80;;;;;;;3.62;70.04;96096.19;121015;1143;65083;-88
2020/12/28 11:26:37;;;;;;;37.20;18.53;;;;;;;3.62;69.97;96090.91;121168;1144;65044;-91
2020/12/28 11:29:05;;;;;;;31.23;15.93;;;;;;;3.64;70.19;96079.26;121323;1144;65101;-92
2020/12/28 11:31:35;;;;;;;30.93;15.70;;;;;;;3.64;70.13;96084.53;120952;1143;64887;-90
2020/12/28 11:34:02;;;;;;;32.47;14.37;;;;;;;3.60;70.36;96085.78;120726;1144;65092;-92
2020/12/28 11:36:28;;;;;;;25.10;13.57;;;;;;;3.57;69.79;96077.33;120323;1143;65098;-90
2020/12/28 11:38:55;;;;;;;23.43;13.40;;;;;;;3.49;69.59;96076.19;120776;1142;65159;-91
2020/12/28 11:41:21;;;;;;;24.50;14.07;;;;;;;3.42;70.32;96069.81;121114;1142;65097;-91
2020/12/28 11:43:48;;;;;;;24.37;14.17;;;;;;;3.34;70.02;96069.69;120556;1143;66209;-91